KLTS

Altus AFB Airport

Altus, Oklahoma, USA
METAR KLTS 230056Z AUTO 12009KT 10SM CLR 28/16 A2992 RMK AO2 SLP119 T02820164 $
Observed Flight Rules
May-23 @ 00:56 UTC (26 minutes ago) Visual Flight Rules
Wind Visibility Clouds
120° at 9 knots 10 miles
  • Clear skies
Temperatures Readings
Current 28°C / 82°F
Dewpoint 16°C / 61°F
Humidity 48%
Altimeter 29.92" Hg
Pressure 1011.9 hPa
Elevation 420
METAR KLTS 230056Z AUTO 12009KT 10SM CLR 28/16 A2992 RMK AO2 SLP119 T02820164 $
Observed Flight Rules
May-23 @ 00:56 UTC
(26 minutes ago)
VFR
Wind Visibility
120° at 9 knots 10 miles
Clouds
  • Clear skies
Temperature Dewpoint
28°C / 82°F 16°C / 61°F
Humidity Altimeter Pressure
48% 29.92" Hg 1011.9 hPa